Shorewood, Illinois
Current Conditions -  °F | °C
As of 12:15 PM on Monday 26 Jan 2015 (Local Time) from KJOT Reporting Station
Overcast Overcast  
Wind Chill: 19°   Ceiling: 5500
Heat Index: 25°   Visibility: 10mi
Dew Point: 19°   Wind: 6mph
Humidity: 76%   Direction: 230°SW
Pressure: 29.92"   Gusts: NA
Location:  41.5°N, 88.22°W
Report Text: KJOT 261815Z AUTO 23005KT 10SM SCT018 SCT044 OVC055 M04/M07 A2992 RMK AO2 T10371074
Loading
Personal Weather Stations






























Interactive Weather Map New forecast layout! Learn more

10-Day Weather Forecast

Advertisements
Track Severe Weather on mobile